Time;durP1;ratioP1;P1;durP2;ratioP2;P2;SDS_P1;SDS_P2;PMS_P1;PMS_P2;Temp;Humidity;BMP_temperature;BMP_pressure;BME280_temperature;BME280_humidity;BME280_pressure;Samples;Min_cycle;Max_cycle;Signal;HPM_P1;HPM_P2
2022/03/03 00:02:10;;;;;;;25.23;16.25;;;;;;;;;;5039449;28;20033;-67
2022/03/03 00:04:35;;;;;;;19.98;16.15;;;;;;;;;;5042497;28;20041;-67
2022/03/03 00:07:01;;;;;;;25.95;14.85;;;;;;;;;;5041327;28;20068;-67
2022/03/03 00:09:27;;;;;;;22.05;16.38;;;;;;;;;;5040524;28;20540;-67
2022/03/03 00:11:53;;;;;;;23.20;15.68;;;;;;;;;;5043984;28;20035;-66
2022/03/03 00:14:19;;;;;;;27.52;16.75;;;;;;;;;;5041504;28;20721;-67
2022/03/03 00:16:45;;;;;;;20.63;15.70;;;;;;;;;;5037820;28;20032;-66
2022/03/03 00:19:10;;;;;;;24.52;16.35;;;;;;;;;;5041190;28;20037;-67
2022/03/03 00:21:36;;;;;;;20.25;15.57;;;;;;;;;;5040061;28;20063;-67
2022/03/03 00:24:02;;;;;;;20.58;15.15;;;;;;;;;;5038517;28;20388;-66
2022/03/03 00:26:28;;;;;;;27.77;16.35;;;;;;;;;;5037587;28;20029;-67
2022/03/03 00:28:54;;;;;;;29.63;16.02;;;;;;;;;;5035291;28;20036;-67
2022/03/03 00:31:19;;;;;;;23.05;15.73;;;;;;;;;;5046608;28;20589;-66
2022/03/03 00:33:45;;;;;;;23.30;14.82;;;;;;;;;;5037871;28;20036;-67
2022/03/03 00:36:11;;;;;;;21.73;14.77;;;;;;;;;;5038171;28;20084;-67
2022/03/03 00:38:37;;;;;;;24.45;15.18;;;;;;;;;;5037843;28;20112;-67
2022/03/03 00:41:03;;;;;;;17.75;13.27;;;;;;;;;;5033416;28;20056;-67
2022/03/03 00:43:28;;;;;;;23.48;14.88;;;;;;;;;;5040721;28;20103;-67
2022/03/03 00:45:54;;;;;;;21.98;14.68;;;;;;;;;;5035476;28;20516;-67
2022/03/03 00:48:20;;;;;;;18.60;13.88;;;;;;;;;;5037908;28;20445;-67
2022/03/03 00:50:46;;;;;;;22.27;13.65;;;;;;;;;;5036075;28;20120;-66
2022/03/03 00:53:12;;;;;;;23.55;14.00;;;;;;;;;;5039428;28;20103;-67
2022/03/03 00:55:38;;;;;;;23.13;14.32;;;;;;;;;;5035559;28;20040;-66
2022/03/03 00:58:04;;;;;;;22.15;13.93;;;;;;;;;;5039989;28;20548;-66
2022/03/03 01:00:30;;;;;;;22.58;14.75;;;;;;;;;;5039100;28;20044;-66
2022/03/03 01:02:56;;;;;;;22.13;14.55;;;;;;;;;;5036529;28;20025;-66
2022/03/03 01:05:21;;;;;;;19.83;14.50;;;;;;;;;;5043103;28;20029;-66
2022/03/03 01:07:47;;;;;;;20.77;14.35;;;;;;;;;;5036282;28;20030;-66
2022/03/03 01:10:14;;;;;;;23.23;15.25;;;;;;;;;;5035896;28;20040;-66
2022/03/03 01:12:40;;;;;;;24.52;14.82;;;;;;;;;;5034601;28;20033;-65
2022/03/03 01:15:09;;;;;;;27.95;14.95;;;;;;;;;;5036250;28;20037;-66
2022/03/03 01:17:35;;;;;;;23.35;13.73;;;;;;;;;;5036055;28;20099;-66
2022/03/03 01:20:01;;;;;;;21.10;13.35;;;;;;;;;;5035575;28;22112;-65
2022/03/03 01:22:27;;;;;;;24.83;13.98;;;;;;;;;;5035542;28;20428;-66
2022/03/03 01:24:52;;;;;;;18.10;12.98;;;;;;;;;;5033871;28;20041;-66
2022/03/03 01:27:19;;;;;;;16.23;13.20;;;;;;;;;;5039675;28;20045;-66
2022/03/03 01:29:44;;;;;;;26.92;13.85;;;;;;;;;;5034011;28;20029;-66
2022/03/03 01:32:10;;;;;;;17.80;12.75;;;;;;;;;;5040158;28;20083;-66
2022/03/03 01:34:37;;;;;;;19.45;14.00;;;;;;;;;;5044970;28;20034;-66
2022/03/03 01:37:03;;;;;;;28.55;13.25;;;;;;;;;;5034446;28;20585;-66
2022/03/03 01:39:28;;;;;;;15.15;12.35;;;;;;;;;;5034018;28;20390;-66
2022/03/03 01:41:54;;;;;;;19.50;12.63;;;;;;;;;;5042840;28;20160;-66
2022/03/03 01:44:20;;;;;;;16.75;12.43;;;;;;;;;;5041558;28;20052;-66
2022/03/03 01:46:51;;;;;;;20.33;12.35;;;;;;;;;;5043634;28;20466;-66
2022/03/03 01:49:17;;;;;;;15.18;11.98;;;;;;;;;;5036581;28;20021;-66
2022/03/03 01:51:43;;;;;;;18.17;12.48;;;;;;;;;;5033563;28;20433;-66
2022/03/03 01:54:09;;;;;;;21.60;12.38;;;;;;;;;;5040479;28;20032;-65
2022/03/03 01:56:35;;;;;;;17.23;12.30;;;;;;;;;;5036951;28;20033;-66
2022/03/03 01:59:02;;;;;;;18.83;11.50;;;;;;;;;;5040282;28;20094;-66
2022/03/03 02:01:30;;;;;;;23.40;12.10;;;;;;;;;;5034074;28;20064;-66
2022/03/03 02:03:55;;;;;;;18.55;12.20;;;;;;;;;;5034664;28;20410;-67
2022/03/03 02:06:21;;;;;;;18.80;12.35;;;;;;;;;;5037326;28;20030;-66
2022/03/03 02:08:47;;;;;;;16.67;12.02;;;;;;;;;;5038415;28;20029;-66
2022/03/03 02:11:13;;;;;;;23.23;11.88;;;;;;;;;;5034528;28;20067;-66
2022/03/03 02:13:38;;;;;;;19.40;10.88;;;;;;;;;;5044966;28;20139;-66
2022/03/03 02:16:07;;;;;;;16.38;11.20;;;;;;;;;;5031728;28;20033;-66
2022/03/03 02:18:42;;;;;;;15.18;11.32;;;;;;;;;;5034654;28;20672;-66
2022/03/03 02:21:12;;;;;;;15.32;11.55;;;;;;;;;;5035027;28;20505;-66
2022/03/03 02:23:37;;;;;;;18.58;11.75;;;;;;;;;;5037316;28;20056;-66
2022/03/03 02:26:03;;;;;;;15.93;12.75;;;;;;;;;;5038011;28;20100;-66
2022/03/03 02:28:29;;;;;;;13.73;11.35;;;;;;;;;;5037760;28;20446;-66
2022/03/03 02:30:54;;;;;;;18.63;12.38;;;;;;;;;;5034742;28;20074;-68
2022/03/03 02:33:20;;;;;;;21.42;12.45;;;;;;;;;;5044834;28;20470;-66
2022/03/03 02:35:46;;;;;;;17.38;13.45;;;;;;;;;;5037128;28;20045;-66
2022/03/03 02:38:12;;;;;;;15.48;11.80;;;;;;;;;;5035846;28;20424;-66
2022/03/03 02:40:37;;;;;;;20.02;11.05;;;;;;;;;;5038843;28;20033;-67
2022/03/03 02:43:03;;;;;;;16.45;11.40;;;;;;;;;;5031480;28;20029;-66
2022/03/03 02:45:29;;;;;;;15.68;11.55;;;;;;;;;;5034936;28;20060;-66
2022/03/03 02:47:55;;;;;;;16.20;11.93;;;;;;;;;;5037854;28;20112;-66
2022/03/03 02:50:28;;;;;;;16.27;12.10;;;;;;;;;;5037029;28;20083;-66
2022/03/03 02:52:57;;;;;;;19.90;11.75;;;;;;;;;;5037166;28;20025;-67
2022/03/03 02:55:22;;;;;;;19.30;12.00;;;;;;;;;;5038808;28;20025;-66
2022/03/03 02:57:55;;;;;;;15.05;11.18;;;;;;;;;;5038881;28;20036;-67
2022/03/03 03:00:23;;;;;;;17.42;11.57;;;;;;;;;;5041573;28;20025;-66
2022/03/03 03:02:49;;;;;;;22.33;11.65;;;;;;;;;;5039170;28;20037;-67
2022/03/03 03:05:14;;;;;;;17.55;11.68;;;;;;;;;;5032197;28;20032;-67
2022/03/03 03:07:40;;;;;;;16.00;11.63;;;;;;;;;;5031353;28;20035;-66
2022/03/03 03:10:06;;;;;;;15.00;11.38;;;;;;;;;;5030664;28;20131;-66
2022/03/03 03:12:33;;;;;;;16.70;11.68;;;;;;;;;;5033018;28;20040;-66
2022/03/03 03:14:58;;;;;;;18.20;11.30;;;;;;;;;;5033178;28;20473;-66
2022/03/03 03:17:24;;;;;;;16.17;12.13;;;;;;;;;;5038523;28;20024;-66
2022/03/03 03:19:50;;;;;;;16.45;11.63;;;;;;;;;;5030757;28;20602;-67
2022/03/03 03:22:16;;;;;;;20.23;13.23;;;;;;;;;;5032558;28;20032;-66
2022/03/03 03:24:42;;;;;;;23.55;13.77;;;;;;;;;;5036765;28;20444;-67
2022/03/03 03:27:07;;;;;;;19.50;13.98;;;;;;;;;;5037614;28;20069;-66
2022/03/03 03:29:33;;;;;;;21.02;14.00;;;;;;;;;;5033027;28;20033;-67
2022/03/03 03:31:59;;;;;;;20.05;14.80;;;;;;;;;;5033825;28;20091;-67
2022/03/03 03:34:24;;;;;;;19.15;14.18;;;;;;;;;;5033405;28;20080;-66
2022/03/03 03:36:50;;;;;;;19.15;13.60;;;;;;;;;;5041529;28;20033;-67
2022/03/03 03:39:16;;;;;;;21.05;14.20;;;;;;;;;;5034875;28;20547;-66
2022/03/03 03:41:43;;;;;;;19.38;13.77;;;;;;;;;;5031500;28;20037;-66
2022/03/03 03:44:10;;;;;;;18.08;13.68;;;;;;;;;;5033636;28;20102;-67
2022/03/03 03:46:36;;;;;;;21.20;14.77;;;;;;;;;;5037872;28;20029;-67
2022/03/03 03:49:03;;;;;;;19.05;14.02;;;;;;;;;;5038063;28;20037;-67
2022/03/03 03:51:29;;;;;;;22.00;14.75;;;;;;;;;;5031748;28;20041;-66
2022/03/03 03:53:55;;;;;;;21.05;14.15;;;;;;;;;;5034643;28;20389;-67
2022/03/03 03:56:20;;;;;;;25.02;15.70;;;;;;;;;;5035734;28;20029;-66
2022/03/03 03:58:46;;;;;;;16.90;13.77;;;;;;;;;;5041979;28;20060;-67
2022/03/03 04:01:12;;;;;;;18.05;13.88;;;;;;;;;;5037238;28;20044;-67
2022/03/03 04:03:38;;;;;;;20.50;14.60;;;;;;;;;;5031136;28;20091;-66
2022/03/03 04:06:05;;;;;;;22.00;13.73;;;;;;;;;;5033950;28;20025;-66
2022/03/03 04:08:31;;;;;;;25.63;13.95;;;;;;;;;;5039070;28;20086;-66
2022/03/03 04:10:57;;;;;;;17.58;13.73;;;;;;;;;;5033951;28;20044;-66
2022/03/03 04:13:23;;;;;;;21.10;14.63;;;;;;;;;;5030847;28;20025;-66
2022/03/03 04:15:50;;;;;;;19.08;13.75;;;;;;;;;;5037465;28;20064;-66
2022/03/03 04:18:15;;;;;;;20.92;14.77;;;;;;;;;;5031944;28;20068;-66
2022/03/03 04:20:41;;;;;;;20.98;14.85;;;;;;;;;;5032257;28;20615;-66
2022/03/03 04:23:07;;;;;;;24.88;14.38;;;;;;;;;;5032946;28;20044;-68
2022/03/03 04:25:33;;;;;;;23.77;16.23;;;;;;;;;;5029589;28;20049;-67
2022/03/03 04:28:02;;;;;;;25.55;16.13;;;;;;;;;;5036611;28;20043;-66
2022/03/03 04:30:28;;;;;;;27.48;16.13;;;;;;;;;;5031356;28;20038;-66
2022/03/03 04:32:53;;;;;;;21.48;14.80;;;;;;;;;;5036963;28;20053;-66
2022/03/03 04:35:19;;;;;;;21.88;15.10;;;;;;;;;;5031475;28;20033;-65
2022/03/03 04:37:45;;;;;;;22.15;14.95;;;;;;;;;;5030679;28;20021;-66
2022/03/03 04:40:11;;;;;;;23.35;14.65;;;;;;;;;;5035440;28;20067;-66
2022/03/03 04:42:37;;;;;;;22.85;15.80;;;;;;;;;;5035609;28;20386;-66
2022/03/03 04:45:03;;;;;;;22.85;15.93;;;;;;;;;;5037022;28;20021;-66
2022/03/03 04:47:29;;;;;;;25.38;15.65;;;;;;;;;;5038922;28;20033;-66
2022/03/03 04:49:55;;;;;;;23.65;15.93;;;;;;;;;;5037082;28;20043;-66
2022/03/03 04:52:21;;;;;;;23.80;16.77;;;;;;;;;;5033843;28;20060;-66
2022/03/03 04:54:48;;;;;;;23.88;16.02;;;;;;;;;;5039277;28;20092;-66
2022/03/03 04:57:14;;;;;;;23.45;16.50;;;;;;;;;;5041963;28;20103;-66
2022/03/03 04:59:40;;;;;;;25.33;15.80;;;;;;;;;;5035709;28;20469;-66
2022/03/03 05:02:06;;;;;;;25.30;16.75;;;;;;;;;;5038621;28;20486;-66
2022/03/03 05:04:32;;;;;;;28.70;16.38;;;;;;;;;;5034344;28;20033;-66
2022/03/03 05:06:57;;;;;;;24.13;15.88;;;;;;;;;;5037517;28;20094;-66
2022/03/03 05:09:23;;;;;;;24.15;16.20;;;;;;;;;;5039794;28;20036;-66
2022/03/03 05:11:49;;;;;;;27.67;17.08;;;;;;;;;;5043208;28;20482;-66
2022/03/03 05:14:14;;;;;;;25.20;16.67;;;;;;;;;;5040029;28;20078;-66
2022/03/03 05:16:41;;;;;;;27.50;16.70;;;;;;;;;;5033929;28;20486;-65
2022/03/03 05:19:07;;;;;;;21.52;16.05;;;;;;;;;;5037583;28;24817;-66
2022/03/03 05:21:33;;;;;;;23.50;16.30;;;;;;;;;;5036217;28;20076;-66
2022/03/03 05:23:59;;;;;;;22.25;16.00;;;;;;;;;;5033459;28;20113;-66
2022/03/03 05:26:25;;;;;;;23.55;16.52;;;;;;;;;;5039196;28;20082;-66
2022/03/03 05:28:51;;;;;;;27.10;16.90;;;;;;;;;;5040741;28;20029;-65
2022/03/03 05:31:17;;;;;;;30.13;16.52;;;;;;;;;;5034510;28;20061;-66
2022/03/03 05:33:43;;;;;;;25.13;16.67;;;;;;;;;;5038401;28;20068;-66
2022/03/03 05:36:10;;;;;;;23.08;15.85;;;;;;;;;;5036383;28;20204;-66
2022/03/03 05:38:37;;;;;;;24.33;16.08;;;;;;;;;;5035708;28;20036;-66
2022/03/03 05:41:04;;;;;;;22.73;16.67;;;;;;;;;;5036321;28;20040;-66
2022/03/03 05:43:31;;;;;;;24.42;16.20;;;;;;;;;;5034610;28;20048;-66
2022/03/03 05:45:57;;;;;;;24.13;16.75;;;;;;;;;;5037038;28;20120;-65
2022/03/03 05:48:23;;;;;;;28.17;17.05;;;;;;;;;;5034043;28;20124;-67
2022/03/03 05:50:49;;;;;;;24.85;16.02;;;;;;;;;;5036055;28;20037;-66
2022/03/03 05:53:16;;;;;;;18.77;15.00;;;;;;;;;;5037275;28;20028;-66
2022/03/03 05:55:46;;;;;;;24.45;15.27;;;;;;;;;;5034268;28;20390;-66
2022/03/03 05:58:16;;;;;;;26.17;16.33;;;;;;;;;;5034619;28;20553;-65
2022/03/03 06:00:44;;;;;;;21.98;16.05;;;;;;;;;;5038507;28;20037;-66
2022/03/03 06:03:16;;;;;;;24.10;15.77;;;;;;;;;;5044576;28;20036;-66
2022/03/03 06:05:47;;;;;;;25.42;15.80;;;;;;;;;;5036907;28;20037;-66
2022/03/03 06:08:17;;;;;;;23.60;15.73;;;;;;;;;;5037534;28;20037;-66
2022/03/03 06:10:49;;;;;;;25.52;16.23;;;;;;;;;;5033728;28;20029;-66
2022/03/03 06:13:27;;;;;;;;;;;;;;;;;;5033411;28;20029;-66
2022/03/03 06:15:54;;;;;;;21.80;15.10;;;;;;;;;;5036069;28;19924;-66
2022/03/03 06:18:24;;;;;;;21.27;15.20;;;;;;;;;;5036686;28;20091;-66
2022/03/03 06:20:51;;;;;;;23.20;14.57;;;;;;;;;;5040606;28;20025;-66
2022/03/03 06:23:18;;;;;;;28.45;15.18;;;;;;;;;;5033449;28;20131;-68
2022/03/03 06:25:44;;;;;;;26.70;14.88;;;;;;;;;;5032981;28;20132;-67
2022/03/03 06:28:11;;;;;;;30.58;15.10;;;;;;;;;;5037048;28;20127;-67
2022/03/03 06:30:37;;;;;;;18.85;14.32;;;;;;;;;;5037786;28;20056;-68
2022/03/03 06:33:03;;;;;;;25.02;15.50;;;;;;;;;;5033287;28;20029;-68
2022/03/03 06:35:35;;;;;;;23.08;14.32;;;;;;;;;;5035757;28;20041;-67
2022/03/03 06:38:08;;;;;;;26.45;13.52;;;;;;;;;;5034165;28;20429;-66
2022/03/03 06:40:34;;;;;;;19.55;14.13;;;;;;;;;;5030933;28;20397;-66
2022/03/03 06:43:01;;;;;;;21.73;14.57;;;;;;;;;;5036145;28;20033;-66
2022/03/03 06:45:31;;;;;;;21.23;14.45;;;;;;;;;;5032532;28;20030;-65
2022/03/03 06:47:59;;;;;;;21.17;14.02;;;;;;;;;;5032610;28;20094;-66
2022/03/03 06:50:25;;;;;;;25.23;14.20;;;;;;;;;;5032467;28;20429;-66
2022/03/03 06:52:51;;;;;;;21.05;14.23;;;;;;;;;;5037518;28;20091;-65
2022/03/03 06:55:20;;;;;;;21.85;13.85;;;;;;;;;;5029977;28;20557;-66
2022/03/03 06:57:50;;;;;;;22.10;15.10;;;;;;;;;;5037696;28;20469;-65
2022/03/03 07:00:18;;;;;;;21.17;14.10;;;;;;;;;;5034431;28;20029;-65
2022/03/03 07:02:46;;;;;;;23.50;15.23;;;;;;;;;;5035670;28;20032;-65
2022/03/03 07:05:12;;;;;;;21.90;13.45;;;;;;;;;;5031541;28;20025;-65
2022/03/03 07:07:41;;;;;;;21.23;14.13;;;;;;;;;;5032597;28;20477;-65
2022/03/03 07:10:07;;;;;;;23.83;13.73;;;;;;;;;;5038208;28;20091;-65
2022/03/03 07:12:34;;;;;;;23.05;13.77;;;;;;;;;;5034957;28;20500;-66
2022/03/03 07:15:00;;;;;;;19.02;12.45;;;;;;;;;;5037583;28;20484;-65
2022/03/03 07:17:51;;;;;;;20.98;13.07;;;;;;;;;;5035016;28;20029;-66
2022/03/03 07:20:25;;;;;;;25.88;13.13;;;;;;;;;;5034274;28;20025;-67
2022/03/03 07:23:04;;;;;;;21.08;12.38;;;;;;;;;;5036477;28;20504;-66
2022/03/03 07:25:51;;;;;;;20.42;12.80;;;;;;;;;;5031174;28;20059;-66
2022/03/03 07:28:19;;;;;;;23.17;14.20;;;;;;;;;;5029526;28;20037;-66
2022/03/03 07:30:49;;;;;;;30.58;14.73;;;;;;;;;;5037015;28;20042;-66
2022/03/03 07:33:51;;;;;;;20.83;14.60;;;;;;;;;;5031360;28;20102;-66
2022/03/03 07:36:22;;;;;;;27.17;14.43;;;;;;;;;;5034695;28;20037;-66
2022/03/03 07:38:57;;;;;;;22.77;15.43;;;;;;;;;;5035394;28;20094;-66
2022/03/03 07:41:25;;;;;;;18.55;14.32;;;;;;;;;;5032864;28;20450;-66
2022/03/03 07:43:55;;;;;;;28.00;13.70;;;;;;;;;;5040524;28;20111;-66
2022/03/03 07:46:22;;;;;;;33.95;13.10;;;;;;;;;;5037050;28;21113;-67
2022/03/03 07:48:50;;;;;;;24.13;13.68;;;;;;;;;;5034111;28;20025;-66
2022/03/03 07:51:18;;;;;;;25.10;12.55;;;;;;;;;;5034149;28;20413;-67
2022/03/03 07:53:44;;;;;;;20.02;12.38;;;;;;;;;;5034692;28;20039;-66
2022/03/03 07:56:15;;;;;;;16.05;11.48;;;;;;;;;;5033905;28;20021;-67
2022/03/03 07:58:45;;;;;;;20.73;12.07;;;;;;;;;;5036537;28;20488;-66
2022/03/03 08:01:17;;;;;;;17.48;12.45;;;;;;;;;;5034277;28;20051;-66
2022/03/03 08:03:46;;;;;;;19.73;12.05;;;;;;;;;;5032521;28;20037;-67
2022/03/03 08:06:15;;;;;;;24.65;11.20;;;;;;;;;;5040721;28;20030;-66
2022/03/03 08:08:41;;;;;;;21.35;11.07;;;;;;;;;;5032233;28;20167;-66
2022/03/03 08:11:09;;;;;;;13.95;11.05;;;;;;;;;;5032768;28;20116;-66
2022/03/03 08:13:35;;;;;;;21.73;11.85;;;;;;;;;;5031926;28;20475;-66
2022/03/03 08:16:02;;;;;;;15.65;11.20;;;;;;;;;;5039025;28;20468;-66
2022/03/03 08:18:31;;;;;;;17.35;11.43;;;;;;;;;;5036030;28;20044;-67
2022/03/03 08:21:00;;;;;;;21.48;11.52;;;;;;;;;;5040548;28;20096;-67
2022/03/03 08:23:27;;;;;;;20.77;11.07;;;;;;;;;;5041074;28;20033;-66
2022/03/03 08:25:55;;;;;;;13.15;10.10;;;;;;;;;;5033804;28;20112;-67
2022/03/03 08:28:24;;;;;;;14.82;10.18;;;;;;;;;;5042822;28;20044;-66
2022/03/03 08:31:19;;;;;;;15.40;10.55;;;;;;;;;;5033951;28;20474;-67
2022/03/03 08:34:09;;;;;;;22.10;11.23;;;;;;;;;;5038992;28;20054;-66
2022/03/03 08:36:44;;;;;;;19.23;10.45;;;;;;;;;;5047617;28;20043;-67
2022/03/03 08:39:13;;;;;;;14.70;10.73;;;;;;;;;;5038036;28;20517;-67
2022/03/03 08:41:40;;;;;;;16.10;10.45;;;;;;;;;;5039068;28;20532;-67
2022/03/03 08:44:07;;;;;;;12.60;10.23;;;;;;;;;;5039702;28;20029;-67
2022/03/03 08:46:36;;;;;;;16.23;8.85;;;;;;;;;;5036206;28;20033;-66
2022/03/03 08:49:05;;;;;;;13.50;9.60;;;;;;;;;;5039158;28;20482;-66
2022/03/03 08:51:30;;;;;;;14.50;9.70;;;;;;;;;;5038350;28;20036;-66
2022/03/03 08:53:57;;;;;;;15.52;10.50;;;;;;;;;;5034147;28;20033;-67
2022/03/03 08:56:23;;;;;;;14.65;9.43;;;;;;;;;;5036345;28;20028;-67
2022/03/03 08:58:50;;;;;;;32.75;15.27;;;;;;;;;;5036625;28;20482;-67
2022/03/03 09:01:16;;;;;;;18.10;10.60;;;;;;;;;;5040746;28;20084;-67
2022/03/03 09:03:43;;;;;;;16.30;12.25;;;;;;;;;;5034216;28;20057;-67
2022/03/03 09:06:14;;;;;;;19.55;10.90;;;;;;;;;;5034696;28;20033;-66
2022/03/03 09:08:40;;;;;;;12.98;9.80;;;;;;;;;;5030640;28;20033;-67
2022/03/03 09:11:05;;;;;;;13.77;9.43;;;;;;;;;;5033976;28;20087;-66
2022/03/03 09:13:32;;;;;;;13.88;8.23;;;;;;;;;;5032546;28;20398;-67
2022/03/03 09:15:58;;;;;;;12.95;8.85;;;;;;;;;;5039012;28;20183;-67
2022/03/03 09:18:24;;;;;;;17.85;8.70;;;;;;;;;;5040155;28;20032;-67
2022/03/03 09:20:50;;;;;;;13.63;8.50;;;;;;;;;;5035629;28;20037;-67
2022/03/03 09:23:17;;;;;;;18.33;10.05;;;;;;;;;;5034922;28;20017;-67
2022/03/03 09:25:43;;;;;;;16.90;9.10;;;;;;;;;;5038378;28;20044;-66
2022/03/03 09:28:09;;;;;;;14.93;9.48;;;;;;;;;;5040174;28;20038;-67
2022/03/03 09:30:35;;;;;;;12.90;8.70;;;;;;;;;;5036617;28;20029;-66
2022/03/03 09:33:02;;;;;;;11.73;8.32;;;;;;;;;;5034387;28;20455;-67
2022/03/03 09:35:28;;;;;;;13.43;8.93;;;;;;;;;;5036805;28;20053;-66
2022/03/03 09:37:54;;;;;;;20.27;9.27;;;;;;;;;;5033279;28;20110;-67
2022/03/03 09:40:20;;;;;;;15.95;8.93;;;;;;;;;;5035647;28;20576;-67
2022/03/03 09:43:05;;;;;;;11.95;8.57;;;;;;;;;;5042424;28;20025;-67
2022/03/03 09:45:32;;;;;;;11.05;8.90;;;;;;;;;;5035844;28;20029;-67
2022/03/03 09:48:00;;;;;;;16.63;8.75;;;;;;;;;;5035110;28;20029;-66
2022/03/03 09:50:27;;;;;;;11.18;7.65;;;;;;;;;;5036459;28;20151;-67
2022/03/03 09:52:54;;;;;;;11.98;7.57;;;;;;;;;;5038197;28;20086;-67
2022/03/03 09:55:21;;;;;;;11.25;6.88;;;;;;;;;;5040165;28;20033;-67
2022/03/03 09:57:48;;;;;;;10.57;7.30;;;;;;;;;;5033810;28;20412;-67
2022/03/03 10:00:14;;;;;;;13.07;7.40;;;;;;;;;;5032794;28;20029;-67
2022/03/03 10:03:16;;;;;;;14.50;7.38;;;;;;;;;;5037470;28;20513;-65
2022/03/03 10:05:47;;;;;;;13.43;7.32;;;;;;;;;;4997575;28;20101;-66
2022/03/03 10:08:21;;;;;;;11.05;5.88;;;;;;;;;;5002907;28;20053;-67
2022/03/03 10:10:49;;;;;;;8.30;5.40;;;;;;;;;;4998920;28;20042;-66
2022/03/03 10:13:17;;;;;;;9.05;6.28;;;;;;;;;;4992710;28;20191;-67
2022/03/03 10:15:51;;;;;;;10.98;6.18;;;;;;;;;;4997114;28;20038;-67
2022/03/03 10:18:18;;;;;;;7.13;5.95;;;;;;;;;;5000181;28;20026;-66
2022/03/03 10:20:49;;;;;;;7.80;5.63;;;;;;;;;;4996601;28;20030;-66
2022/03/03 10:23:16;;;;;;;10.10;6.35;;;;;;;;;;4993356;28;20037;-66
2022/03/03 10:25:44;;;;;;;8.20;5.80;;;;;;;;;;5002292;28;20046;-66
2022/03/03 10:28:13;;;;;;;9.07;6.15;;;;;;;;;;4996841;28;20034;-66
2022/03/03 10:31:09;;;;;;;7.90;5.53;;;;;;;;;;4992910;28;20069;-66
2022/03/03 10:33:40;;;;;;;8.63;5.55;;;;;;;;;;4998381;28;20137;-66
2022/03/03 10:36:09;;;;;;;6.70;5.10;;;;;;;;;;4997681;28;20030;-66
2022/03/03 10:38:53;;;;;;;8.65;5.00;;;;;;;;;;4995849;28;20042;-66
2022/03/03 10:41:47;;;;;;;8.10;5.32;;;;;;;;;;5022584;28;20612;-66
2022/03/03 10:44:16;;;;;;;6.90;5.00;;;;;;;;;;5031596;28;20115;-66
2022/03/03 10:47:01;;;;;;;9.00;5.47;;;;;;;;;;5036835;28;20037;-65
2022/03/03 10:49:28;;;;;;;7.18;5.32;;;;;;;;;;5034532;28;20037;-66
2022/03/03 10:51:54;;;;;;;11.65;5.00;;;;;;;;;;5037171;28;20037;-66
2022/03/03 10:54:20;;;;;;;6.82;5.30;;;;;;;;;;5036641;28;20479;-66
2022/03/03 10:56:48;;;;;;;9.15;6.18;;;;;;;;;;5036429;28;20029;-66
2022/03/03 10:59:24;;;;;;;7.13;5.05;;;;;;;;;;5043119;28;20060;-66
2022/03/03 11:01:52;;;;;;;7.13;6.03;;;;;;;;;;5037655;28;20028;-66
2022/03/03 11:04:23;;;;;;;9.70;5.65;;;;;;;;;;5032222;28;20075;-66
2022/03/03 11:06:49;;;;;;;10.77;5.65;;;;;;;;;;5035965;28;20482;-66
2022/03/03 11:09:19;;;;;;;8.15;5.50;;;;;;;;;;5037689;28;20036;-66
2022/03/03 11:11:48;;;;;;;7.82;5.22;;;;;;;;;;5031713;28;20445;-66
2022/03/03 11:14:13;;;;;;;7.53;5.55;;;;;;;;;;5037722;28;20084;-66
2022/03/03 11:16:41;;;;;;;15.00;5.63;;;;;;;;;;5035553;28;20059;-66
2022/03/03 11:19:10;;;;;;;12.27;5.70;;;;;;;;;;5031876;28;20045;-66
2022/03/03 11:21:36;;;;;;;9.68;5.50;;;;;;;;;;5034017;28;20025;-66
2022/03/03 11:24:03;;;;;;;9.55;5.25;;;;;;;;;;5035146;28;20099;-66
2022/03/03 11:26:39;;;;;;;8.25;5.45;;;;;;;;;;5039843;28;20041;-67
2022/03/03 11:29:15;;;;;;;9.02;5.45;;;;;;;;;;5037642;28;20108;-67
2022/03/03 11:31:42;;;;;;;9.05;5.63;;;;;;;;;;5038424;28;20029;-66
2022/03/03 11:34:38;;;;;;;11.57;5.88;;;;;;;;;;5033666;28;20033;-66
2022/03/03 11:37:10;;;;;;;9.63;5.45;;;;;;;;;;5040693;28;20033;-67
2022/03/03 11:39:40;;;;;;;5.50;4.55;;;;;;;;;;5036136;28;20429;-67
2022/03/03 11:42:38;;;;;;;12.48;5.28;;;;;;;;;;5033794;28;20043;-67
2022/03/03 11:45:10;;;;;;;8.52;4.68;;;;;;;;;;5053874;28;20679;-67
2022/03/03 11:47:37;;;;;;;9.60;5.57;;;;;;;;;;5055131;28;20095;-67
2022/03/03 11:50:08;;;;;;;6.50;5.38;;;;;;;;;;5057872;28;20051;-66
2022/03/03 11:52:37;;;;;;;10.32;5.57;;;;;;;;;;5053403;28;20039;-67
2022/03/03 11:55:24;;;;;;;8.95;4.80;;;;;;;;;;5055527;28;20075;-67
2022/03/03 11:57:57;;;;;;;6.15;4.45;;;;;;;;;;5053802;28;20047;-67
2022/03/03 12:00:23;;;;;;;10.82;4.93;;;;;;;;;;5065925;28;20762;-67
2022/03/03 12:02:58;;;;;;;6.65;4.45;;;;;;;;;;5062080;28;20031;-67
2022/03/03 12:05:27;;;;;;;9.88;4.75;;;;;;;;;;5060289;28;20550;-66
2022/03/03 12:08:29;;;;;;;6.80;4.00;;;;;;;;;;5055492;28;20079;-67
2022/03/03 12:11:07;;;;;;;8.32;4.95;;;;;;;;;;4965524;28;20050;-66
2022/03/03 12:13:38;;;;;;;5.75;4.40;;;;;;;;;;4969320;28;20503;-67
2022/03/03 12:16:28;;;;;;;21.10;9.32;;;;;;;;;;4968553;28;20023;-67
2022/03/03 12:18:57;;;;;;;13.25;9.38;;;;;;;;;;4967875;28;20039;-67
2022/03/03 12:22:00;;;;;;;16.50;9.57;;;;;;;;;;4962387;28;20039;-67
2022/03/03 12:24:33;;;;;;;10.75;8.55;;;;;;;;;;4968410;28;20042;-67
2022/03/03 12:26:59;;;;;;;;;;;;;;;;;;4967020;28;20038;-67
2022/03/03 12:29:37;;;;;;;10.18;7.53;;;;;;;;;;4964392;28;20343;-67
2022/03/03 12:32:21;;;;;;;17.05;7.35;;;;;;;;;;4966107;28;20042;-67
2022/03/03 12:34:47;;;;;;;11.20;7.30;;;;;;;;;;4963057;28;20031;-67
2022/03/03 12:37:13;;;;;;;9.57;7.75;;;;;;;;;;4963431;28;20065;-67
2022/03/03 12:39:50;;;;;;;15.48;8.00;;;;;;;;;;4961382;28;20118;-67
2022/03/03 12:42:21;;;;;;;12.25;8.88;;;;;;;;;;4959169;28;20038;-67
2022/03/03 12:44:58;;;;;;;15.43;8.65;;;;;;;;;;4961123;28;20062;-67
2022/03/03 12:47:37;;;;;;;15.48;8.70;;;;;;;;;;5026442;28;20032;-65
2022/03/03 12:50:11;;;;;;;15.95;8.90;;;;;;;;;;5035466;28;20531;-66
2022/03/03 12:52:41;;;;;;;17.17;8.98;;;;;;;;;;5042971;28;20036;-65
2022/03/03 12:55:09;;;;;;;17.30;8.48;;;;;;;;;;5036746;28;20041;-66
2022/03/03 12:57:37;;;;;;;12.52;8.18;;;;;;;;;;5037705;28;20359;-66
2022/03/03 13:00:10;;;;;;;11.60;8.20;;;;;;;;;;5036160;28;20399;-65
2022/03/03 13:02:56;;;;;;;13.30;7.95;;;;;;;;;;5041394;28;20025;-66
2022/03/03 13:05:47;;;;;;;21.48;9.00;;;;;;;;;;5041717;28;20040;-65
2022/03/03 13:08:27;;;;;;;17.27;8.90;;;;;;;;;;5040946;28;20029;-66
2022/03/03 13:10:55;;;;;;;15.48;9.43;;;;;;;;;;5031785;28;20540;-66
2022/03/03 13:13:20;;;;;;;15.50;9.25;;;;;;;;;;5033585;28;20033;-66
2022/03/03 13:15:47;;;;;;;23.13;9.90;;;;;;;;;;5034556;28;20034;-66
2022/03/03 13:18:19;;;;;;;16.13;9.27;;;;;;;;;;5037872;28;20379;-66
2022/03/03 13:20:54;;;;;;;17.23;9.30;;;;;;;;;;5038743;28;20028;-65
2022/03/03 13:23:20;;;;;;;17.17;9.18;;;;;;;;;;5032254;28;20482;-66
2022/03/03 13:26:03;;;;;;;14.00;9.05;;;;;;;;;;5035802;28;20115;-66
2022/03/03 13:28:28;;;;;;;13.48;8.27;;;;;;;;;;5039971;28;20068;-66
2022/03/03 13:30:55;;;;;;;15.32;8.20;;;;;;;;;;5040994;28;20125;-66
2022/03/03 13:33:43;;;;;;;12.65;8.20;;;;;;;;;;5043099;28;20037;-65
2022/03/03 13:36:26;;;;;;;14.73;7.63;;;;;;;;;;5039996;28;20123;-66
2022/03/03 13:38:54;;;;;;;15.82;7.63;;;;;;;;;;5039375;28;20482;-66
2022/03/03 13:41:23;;;;;;;18.02;7.85;;;;;;;;;;5035749;28;20092;-66
2022/03/03 13:43:49;;;;;;;20.60;8.80;;;;;;;;;;5039368;28;20397;-66
2022/03/03 13:46:31;;;;;;;13.77;7.07;;;;;;;;;;5037199;28;20025;-67
2022/03/03 13:48:57;;;;;;;17.05;7.82;;;;;;;;;;5036580;28;20025;-67
2022/03/03 13:51:22;;;;;;;12.70;7.82;;;;;;;;;;5040876;28;20033;-66
2022/03/03 13:53:59;;;;;;;12.32;7.07;;;;;;;;;;5037688;28;20064;-67
2022/03/03 13:56:32;;;;;;;8.60;6.63;;;;;;;;;;5038130;28;20040;-67
2022/03/03 13:59:09;;;;;;;11.63;6.40;;;;;;;;;;5037686;28;20482;-67
2022/03/03 14:01:36;;;;;;;12.93;6.93;;;;;;;;;;5035785;28;20393;-67
2022/03/03 14:04:10;;;;;;;12.50;6.70;;;;;;;;;;5033436;28;20040;-67
2022/03/03 14:06:45;;;;;;;11.77;8.30;;;;;;;;;;5039646;28;20540;-67
2022/03/03 14:09:24;;;;;;;13.95;6.53;;;;;;;;;;5037171;28;20029;-67
2022/03/03 14:11:50;;;;;;;15.88;6.97;;;;;;;;;;5036751;28;20059;-67
2022/03/03 14:14:20;;;;;;;13.75;6.60;;;;;;;;;;5038212;28;20025;-67
2022/03/03 14:16:49;;;;;;;11.63;6.45;;;;;;;;;;5036591;28;20041;-67
2022/03/03 14:19:15;;;;;;;10.82;5.68;;;;;;;;;;5032014;28;20525;-67
2022/03/03 14:21:40;;;;;;;12.40;7.68;;;;;;;;;;5038897;28;20148;-67
2022/03/03 14:24:07;;;;;;;10.30;7.15;;;;;;;;;;5034710;28;20123;-67
2022/03/03 14:26:33;;;;;;;9.38;6.00;;;;;;;;;;5037088;28;20067;-67
2022/03/03 14:28:59;;;;;;;14.02;6.60;;;;;;;;;;5041802;28;20090;-67
2022/03/03 14:31:25;;;;;;;11.48;6.50;;;;;;;;;;5033890;28;20120;-67
2022/03/03 14:33:51;;;;;;;13.18;6.00;;;;;;;;;;5029968;28;20036;-67
2022/03/03 14:36:19;;;;;;;8.90;6.05;;;;;;;;;;5040106;28;20536;-67